createdAt,value
2022-12-04T00:02:35.000Z,102993.97
2022-12-04T00:07:35.000Z,102996.77
2022-12-04T00:12:34.000Z,102997.66
2022-12-04T00:17:35.000Z,102995.15
2022-12-04T00:22:35.000Z,102999.6
2022-12-04T00:27:34.000Z,103001.29
2022-12-04T00:32:35.000Z,103003.79
2022-12-04T00:37:34.000Z,103005.52
2022-12-04T00:42:34.000Z,103002.89
2022-12-04T00:47:35.000Z,102999.88
2022-12-04T00:52:34.000Z,102996.08
2022-12-04T00:57:35.000Z,102996.08
2022-12-04T01:02:34.000Z,103001.2
2022-12-04T01:07:34.000Z,103003.91
2022-12-04T01:12:35.000Z,103000.14
2022-12-04T01:17:35.000Z,102997.5
2022-12-04T01:22:35.000Z,103003.67
2022-12-04T01:27:35.000Z,103010.43
2022-12-04T01:32:34.000Z,103011.36
2022-12-04T01:37:35.000Z,103005.7
2022-12-04T01:42:34.000Z,103001.58
2022-12-04T01:47:35.000Z,103005.78
2022-12-04T01:52:34.000Z,103011.35
2022-12-04T01:57:35.000Z,103008.91
2022-12-04T02:02:35.000Z,103009.11
2022-12-04T02:07:35.000Z,103009.21
2022-12-04T02:12:35.000Z,103009.21
2022-12-04T02:17:35.000Z,103005.86
2022-12-04T02:27:34.000Z,103014.32
2022-12-04T02:32:34.000Z,103014.84
2022-12-04T02:37:35.000Z,103011.98
2022-12-04T02:42:35.000Z,103011.98
2022-12-04T02:47:34.000Z,103013.97
2022-12-04T02:52:35.000Z,103020.33
2022-12-04T02:57:35.000Z,103021.86
2022-12-04T03:02:35.000Z,103021.89
2022-12-04T03:07:35.000Z,103014.64
2022-12-04T03:12:34.000Z,103011.17
2022-12-04T03:17:35.000Z,103012.28
2022-12-04T03:22:35.000Z,103014.31
2022-12-04T03:27:35.000Z,103016.04
2022-12-04T03:32:34.000Z,103019.72
2022-12-04T03:37:39.000Z,103023.16
2022-12-04T03:42:34.000Z,103022.34
2022-12-04T03:52:34.000Z,103033.67
2022-12-04T03:57:34.000Z,103033.8
2022-12-04T04:02:34.000Z,103036.96
2022-12-04T04:07:41.000Z,103040.81
2022-12-04T04:12:35.000Z,103042.55
2022-12-04T04:17:35.000Z,103050.96
2022-12-04T04:27:35.000Z,103056.86
2022-12-04T04:32:34.000Z,103054.12
2022-12-04T04:37:35.000Z,103055.95
2022-12-04T04:42:35.000Z,103063.52
2022-12-04T04:47:35.000Z,103065.63
2022-12-04T04:57:35.000Z,103066.39
2022-12-04T05:02:35.000Z,103073.49
2022-12-04T05:07:35.000Z,103075.89
2022-12-04T05:12:35.000Z,103076.16
2022-12-04T05:17:34.000Z,103079.76
2022-12-04T05:22:35.000Z,103082.9
2022-12-04T05:27:34.000Z,103080.39
2022-12-04T05:32:35.000Z,103083.59
2022-12-04T05:37:34.000Z,103083.59
2022-12-04T05:42:34.000Z,103088.19
2022-12-04T05:47:35.000Z,103094.58
2022-12-04T05:52:35.000Z,103093.49
2022-12-04T05:57:35.000Z,103095.97
2022-12-04T06:02:34.000Z,103095.03
2022-12-04T06:07:35.000Z,103094.93
2022-12-04T06:12:34.000Z,103093.44
2022-12-04T06:17:35.000Z,103098.48
2022-12-04T06:22:35.000Z,103101.02
2022-12-04T06:27:38.000Z,103100.8
2022-12-04T06:32:34.000Z,103095.13
2022-12-04T06:37:35.000Z,103089.38
2022-12-04T06:42:35.000Z,103090.35
2022-12-04T06:47:35.000Z,103092.39
2022-12-04T06:52:35.000Z,103092.39
2022-12-04T06:57:34.000Z,103098.72
2022-12-04T07:02:35.000Z,103100.24
2022-12-04T07:07:35.000Z,103107.31
2022-12-04T07:12:35.000Z,103111.5
2022-12-04T07:17:35.000Z,103115.61
2022-12-04T07:22:35.000Z,103112.05
2022-12-04T07:27:35.000Z,103119
2022-12-04T07:32:34.000Z,103120.72
2022-12-04T07:37:35.000Z,103118.75
2022-12-04T07:42:34.000Z,103118.05
2022-12-04T07:47:35.000Z,103116.18
2022-12-04T07:52:34.000Z,103123.69
2022-12-04T07:57:35.000Z,103126.74
2022-12-04T08:02:35.000Z,103129.03
2022-12-04T08:07:35.000Z,103129.03
2022-12-04T08:12:35.000Z,103127.37
2022-12-04T08:17:34.000Z,103127.09
2022-12-04T08:22:35.000Z,103132.59
2022-12-04T08:27:34.000Z,103134.12
2022-12-04T08:32:35.000Z,103133.68
2022-12-04T08:37:34.000Z,103133.38
2022-12-04T08:42:35.000Z,103131.21
2022-12-04T08:47:34.000Z,103133.18
2022-12-04T08:52:35.000Z,103125.34
2022-12-04T08:57:34.000Z,103133.78
2022-12-04T09:02:35.000Z,103132.76
2022-12-04T09:07:34.000Z,103134.46
2022-12-04T09:12:34.000Z,103132.44
2022-12-04T09:17:34.000Z,103130.52
2022-12-04T09:22:35.000Z,103130.52
2022-12-04T09:27:34.000Z,103129.13
2022-12-04T09:32:35.000Z,103128.34
2022-12-04T09:37:34.000Z,103127.61
2022-12-04T09:47:34.000Z,103121.75
2022-12-04T09:52:35.000Z,103125.72
2022-12-04T09:57:35.000Z,103122.85
2022-12-04T10:02:35.000Z,103118.97
2022-12-04T10:07:35.000Z,103121.41
2022-12-04T10:12:35.000Z,103121.41
2022-12-04T10:17:42.000Z,103119.44
2022-12-04T10:22:35.000Z,103109.74
2022-12-04T10:27:34.000Z,103103.21
2022-12-04T10:32:35.000Z,103102.34
2022-12-04T10:37:34.000Z,103099.32
2022-12-04T10:42:35.000Z,103089.27
2022-12-04T10:47:35.000Z,103086.14
2022-12-04T10:52:34.000Z,103086.32
2022-12-04T11:02:35.000Z,103076.05
2022-12-04T11:07:35.000Z,103078.88
2022-12-04T11:12:35.000Z,103071.87
2022-12-04T11:17:34.000Z,103073.95
2022-12-04T11:22:35.000Z,103068.86
2022-12-04T11:27:35.000Z,103077.92
2022-12-04T11:32:35.000Z,103077.18
2022-12-04T11:37:35.000Z,103069.12
2022-12-04T11:42:34.000Z,103069.12
2022-12-04T11:47:34.000Z,103059.67
2022-12-04T11:52:34.000Z,103055.7
2022-12-04T11:57:35.000Z,103054.25
2022-12-04T12:02:35.000Z,103053.39
2022-12-04T12:07:35.000Z,103055.66
2022-12-04T12:12:35.000Z,103062.12
2022-12-04T12:17:34.000Z,103061.83
2022-12-04T12:22:34.000Z,103059.09
2022-12-04T12:27:35.000Z,103058.49
2022-12-04T12:32:35.000Z,103061.55
2022-12-04T12:37:35.000Z,103060.44
2022-12-04T12:42:35.000Z,103060.39
2022-12-04T12:47:35.000Z,103064.68
2022-12-04T12:52:35.000Z,103064.68
2022-12-04T12:57:35.000Z,103065.39
2022-12-04T13:02:35.000Z,103063.64
2022-12-04T13:07:35.000Z,103065.21
2022-12-04T13:12:35.000Z,103065.36
2022-12-04T13:17:34.000Z,103067.43
2022-12-04T13:22:34.000Z,103071.78
2022-12-04T13:27:35.000Z,103069.36
2022-12-04T13:32:37.000Z,103065.05
2022-12-04T13:37:35.000Z,103066.25
2022-12-04T13:42:34.000Z,103060.44
2022-12-04T13:47:35.000Z,103076.07
2022-12-04T13:52:34.000Z,103074.9
2022-12-04T13:57:34.000Z,103073.91
2022-12-04T14:02:34.000Z,103071.09
2022-12-04T14:07:35.000Z,103071.09
2022-12-04T14:12:35.000Z,103070.02
2022-12-04T14:17:34.000Z,103067.34
2022-12-04T14:22:35.000Z,103069.79
2022-12-04T14:27:34.000Z,103062.12
2022-12-04T14:32:34.000Z,103073.42
2022-12-04T14:37:35.000Z,103075.38
2022-12-04T14:42:34.000Z,103074.14
2022-12-04T14:47:34.000Z,103072.11
2022-12-04T14:52:34.000Z,103071.17
2022-12-04T14:57:34.000Z,103068.74
2022-12-04T15:02:35.000Z,103060.72
2022-12-04T15:07:35.000Z,103072.79
2022-12-04T15:12:34.000Z,103069.97
2022-12-04T15:17:35.000Z,103069.3
2022-12-04T15:22:34.000Z,103069.3
2022-12-04T15:27:42.000Z,103070.69
2022-12-04T15:32:35.000Z,103065.68
2022-12-04T15:37:35.000Z,103063.1
2022-12-04T15:42:35.000Z,103063.02
2022-12-04T15:47:35.000Z,103058.87
2022-12-04T15:52:35.000Z,103059.89
2022-12-04T15:57:34.000Z,103059.05
2022-12-04T16:02:35.000Z,103058.6
2022-12-04T16:07:34.000Z,103058.74
2022-12-04T16:12:36.000Z,103058.2
2022-12-04T16:17:35.000Z,103057.59
2022-12-04T16:22:34.000Z,103055.65
2022-12-04T16:27:35.000Z,103054.38
2022-12-04T16:32:35.000Z,103050.81
2022-12-04T16:37:35.000Z,103050.81
2022-12-04T16:42:34.000Z,103052.64
2022-12-04T16:47:35.000Z,103049.04
2022-12-04T16:52:34.000Z,103046.43
2022-12-04T16:57:35.000Z,103048.15
2022-12-04T17:02:34.000Z,103046.2
2022-12-04T17:07:35.000Z,103045.49
2022-12-04T17:12:34.000Z,103043.57
2022-12-04T17:17:35.000Z,103044.29
2022-12-04T17:22:34.000Z,103045.4
2022-12-04T17:27:35.000Z,103039.94
2022-12-04T17:32:34.000Z,103038.49
2022-12-04T17:37:35.000Z,103037.98
2022-12-04T17:42:35.000Z,103034.19
2022-12-04T17:57:35.000Z,103036.74
2022-12-04T18:02:34.000Z,103025.72
2022-12-04T18:07:35.000Z,103026.6
2022-12-04T18:12:35.000Z,103019.04
2022-12-04T18:22:34.000Z,103006.29
2022-12-04T18:27:35.000Z,103014.09
2022-12-04T18:32:34.000Z,103014.09
2022-12-04T18:37:35.000Z,103008.16
2022-12-04T18:42:35.000Z,103007.73
2022-12-04T18:47:35.000Z,103005.5
2022-12-04T18:52:34.000Z,103004.57
2022-12-04T18:57:35.000Z,103002.43
2022-12-04T19:07:35.000Z,102997.93
2022-12-04T19:12:35.000Z,102992.96
2022-12-04T19:17:35.000Z,102992.96
2022-12-04T19:22:35.000Z,102985.81
2022-12-04T19:27:34.000Z,102979.61
2022-12-04T19:32:35.000Z,102977.46
2022-12-04T19:37:34.000Z,102978.56
2022-12-04T19:42:35.000Z,102981.94
2022-12-04T19:47:34.000Z,102980.23
2022-12-04T19:52:35.000Z,102976.58
2022-12-04T19:57:35.000Z,102974.12
2022-12-04T20:02:35.000Z,102972.13
2022-12-04T20:07:34.000Z,102972.69
2022-12-04T20:17:34.000Z,102969.77
2022-12-04T20:22:35.000Z,102966.29
2022-12-04T20:27:35.000Z,102967.37
2022-12-04T20:32:35.000Z,102970.19
2022-12-04T20:37:35.000Z,102966.68
2022-12-04T20:42:43.000Z,102960.69
2022-12-04T20:47:34.000Z,102960.69
2022-12-04T20:52:35.000Z,102960.69
2022-12-04T20:57:34.000Z,102958.93
2022-12-04T21:02:35.000Z,102966.72
2022-12-04T21:07:34.000Z,102963.8
2022-12-04T21:12:35.000Z,102962.79
2022-12-04T21:17:34.000Z,102959.98
2022-12-04T21:22:35.000Z,102957.29
2022-12-04T21:27:34.000Z,102955.73
2022-12-04T21:32:35.000Z,102954.87
2022-12-04T21:37:35.000Z,102950.61
2022-12-04T21:47:35.000Z,102940.97
2022-12-04T21:52:34.000Z,102933.96
2022-12-04T21:57:35.000Z,102931.26
2022-12-04T22:02:34.000Z,102926.33
2022-12-04T22:07:35.000Z,102927.24
2022-12-04T22:12:59.000Z,102918.35
2022-12-04T22:17:34.000Z,102919.02
2022-12-04T22:22:35.000Z,102917.17
2022-12-04T22:27:35.000Z,102905.3
2022-12-04T22:32:35.000Z,102905.3
2022-12-04T22:37:34.000Z,102905.76
2022-12-04T22:42:34.000Z,102901.37
2022-12-04T22:47:35.000Z,102895.09
2022-12-04T22:52:35.000Z,102892.87
2022-12-04T22:57:35.000Z,102887.3
2022-12-04T23:02:34.000Z,102885.82
2022-12-04T23:07:35.000Z,102883.32
2022-12-04T23:12:34.000Z,102879.94
2022-12-04T23:17:35.000Z,102879.78
2022-12-04T23:22:34.000Z,102877.58
2022-12-04T23:27:34.000Z,102877.74
2022-12-04T23:42:34.000Z,102871.91
2022-12-04T23:47:35.000Z,102865.31
2022-12-04T23:52:34.000Z,102863.3
2022-12-04T23:57:35.000Z,102855.8
